sensor_id;sensor_type;location;lat;lon;timestamp;temperature;humidity
80937;DHT22;70395;51.382;7.074;2023-12-20T00:01:50;10.70;75.10
80937;DHT22;70395;51.382;7.074;2023-12-20T00:04:16;10.70;75.00
80937;DHT22;70395;51.382;7.074;2023-12-20T00:06:42;10.60;74.80
80937;DHT22;70395;51.382;7.074;2023-12-20T00:09:07;10.60;74.80
80937;DHT22;70395;51.382;7.074;2023-12-20T00:11:33;10.60;75.00
80937;DHT22;70395;51.382;7.074;2023-12-20T00:13:59;10.60;75.00
80937;DHT22;70395;51.382;7.074;2023-12-20T00:16:25;10.60;74.70
80937;DHT22;70395;51.382;7.074;2023-12-20T00:18:51;10.50;74.60
80937;DHT22;70395;51.382;7.074;2023-12-20T00:21:16;10.50;74.60
80937;DHT22;70395;51.382;7.074;2023-12-20T00:23:42;10.50;74.70
80937;DHT22;70395;51.382;7.074;2023-12-20T00:26:08;10.50;74.50
80937;DHT22;70395;51.382;7.074;2023-12-20T00:28:34;10.50;74.60
80937;DHT22;70395;51.382;7.074;2023-12-20T00:31:00;10.50;74.60
80937;DHT22;70395;51.382;7.074;2023-12-20T00:33:26;10.50;74.60
80937;DHT22;70395;51.382;7.074;2023-12-20T00:35:52;10.50;74.60
80937;DHT22;70395;51.382;7.074;2023-12-20T00:38:17;10.50;74.60
80937;DHT22;70395;51.382;7.074;2023-12-20T00:40:43;10.40;74.30
80937;DHT22;70395;51.382;7.074;2023-12-20T00:43:09;10.40;74.10
80937;DHT22;70395;51.382;7.074;2023-12-20T00:45:35;10.40;74.20
80937;DHT22;70395;51.382;7.074;2023-12-20T00:48:00;10.40;74.20
80937;DHT22;70395;51.382;7.074;2023-12-20T00:50:26;10.30;73.90
80937;DHT22;70395;51.382;7.074;2023-12-20T00:52:52;10.30;73.80
80937;DHT22;70395;51.382;7.074;2023-12-20T00:55:20;10.30;73.80
80937;DHT22;70395;51.382;7.074;2023-12-20T00:57:45;10.20;73.70
80937;DHT22;70395;51.382;7.074;2023-12-20T01:00:11;10.20;73.90
80937;DHT22;70395;51.382;7.074;2023-12-20T01:02:38;10.20;73.70
80937;DHT22;70395;51.382;7.074;2023-12-20T01:05:05;10.10;73.80
80937;DHT22;70395;51.382;7.074;2023-12-20T01:07:32;10.10;74.00
80937;DHT22;70395;51.382;7.074;2023-12-20T01:09:58;10.10;74.00
80937;DHT22;70395;51.382;7.074;2023-12-20T01:12:24;10.10;74.00
80937;DHT22;70395;51.382;7.074;2023-12-20T01:14:50;10.10;74.10
80937;DHT22;70395;51.382;7.074;2023-12-20T01:17:16;10.10;74.10
80937;DHT22;70395;51.382;7.074;2023-12-20T01:19:41;10.10;73.70
80937;DHT22;70395;51.382;7.074;2023-12-20T01:22:07;10.10;73.60
80937;DHT22;70395;51.382;7.074;2023-12-20T01:24:33;10.00;73.40
80937;DHT22;70395;51.382;7.074;2023-12-20T01:26:59;10.00;73.50
80937;DHT22;70395;51.382;7.074;2023-12-20T01:29:24;10.00;73.40
80937;DHT22;70395;51.382;7.074;2023-12-20T01:31:50;9.90;74.10
80937;DHT22;70395;51.382;7.074;2023-12-20T01:34:17;9.90;74.30
80937;DHT22;70395;51.382;7.074;2023-12-20T01:36:43;9.90;74.40
80937;DHT22;70395;51.382;7.074;2023-12-20T01:39:08;9.90;74.30
80937;DHT22;70395;51.382;7.074;2023-12-20T01:41:34;9.90;73.90
80937;DHT22;70395;51.382;7.074;2023-12-20T01:44:00;9.90;74.00
80937;DHT22;70395;51.382;7.074;2023-12-20T01:46:26;9.90;74.20
80937;DHT22;70395;51.382;7.074;2023-12-20T01:48:52;9.90;74.10
80937;DHT22;70395;51.382;7.074;2023-12-20T01:51:19;9.90;74.00
80937;DHT22;70395;51.382;7.074;2023-12-20T01:53:47;9.90;74.10
80937;DHT22;70395;51.382;7.074;2023-12-20T01:56:14;9.90;74.10
80937;DHT22;70395;51.382;7.074;2023-12-20T01:58:44;9.90;74.00
80937;DHT22;70395;51.382;7.074;2023-12-20T02:01:12;9.90;74.10
80937;DHT22;70395;51.382;7.074;2023-12-20T02:03:41;9.90;74.90
80937;DHT22;70395;51.382;7.074;2023-12-20T02:06:07;9.90;74.00
80937;DHT22;70395;51.382;7.074;2023-12-20T02:08:35;9.80;73.80
80937;DHT22;70395;51.382;7.074;2023-12-20T02:11:01;9.80;74.20
80937;DHT22;70395;51.382;7.074;2023-12-20T02:13:27;9.80;73.40
80937;DHT22;70395;51.382;7.074;2023-12-20T02:15:54;9.80;73.30
80937;DHT22;70395;51.382;7.074;2023-12-20T02:18:20;9.70;73.00
80937;DHT22;70395;51.382;7.074;2023-12-20T02:20:46;9.60;72.80
80937;DHT22;70395;51.382;7.074;2023-12-20T02:23:12;9.60;73.50
80937;DHT22;70395;51.382;7.074;2023-12-20T02:25:38;9.50;72.80
80937;DHT22;70395;51.382;7.074;2023-12-20T02:28:04;9.40;72.90
80937;DHT22;70395;51.382;7.074;2023-12-20T02:30:31;9.40;73.10
80937;DHT22;70395;51.382;7.074;2023-12-20T02:32:57;9.30;73.20
80937;DHT22;70395;51.382;7.074;2023-12-20T02:35:25;9.30;73.10
80937;DHT22;70395;51.382;7.074;2023-12-20T02:37:51;9.20;73.00
80937;DHT22;70395;51.382;7.074;2023-12-20T02:40:17;9.20;73.20
80937;DHT22;70395;51.382;7.074;2023-12-20T02:42:43;9.20;73.40
80937;DHT22;70395;51.382;7.074;2023-12-20T02:45:09;9.10;73.50
80937;DHT22;70395;51.382;7.074;2023-12-20T02:47:35;9.10;73.60
80937;DHT22;70395;51.382;7.074;2023-12-20T02:50:00;9.10;73.50
80937;DHT22;70395;51.382;7.074;2023-12-20T02:52:28;9.10;73.70
80937;DHT22;70395;51.382;7.074;2023-12-20T02:54:54;9.10;73.70
80937;DHT22;70395;51.382;7.074;2023-12-20T02:57:20;9.10;73.70
80937;DHT22;70395;51.382;7.074;2023-12-20T02:59:46;9.10;73.70
80937;DHT22;70395;51.382;7.074;2023-12-20T03:02:12;9.10;73.50
80937;DHT22;70395;51.382;7.074;2023-12-20T03:04:38;9.10;73.60
80937;DHT22;70395;51.382;7.074;2023-12-20T03:07:04;9.10;73.40
80937;DHT22;70395;51.382;7.074;2023-12-20T03:09:29;9.10;73.40
80937;DHT22;70395;51.382;7.074;2023-12-20T03:11:55;9.10;73.40
80937;DHT22;70395;51.382;7.074;2023-12-20T03:14:21;9.10;73.40
80937;DHT22;70395;51.382;7.074;2023-12-20T03:16:49;9.10;73.40
80937;DHT22;70395;51.382;7.074;2023-12-20T03:19:17;9.10;73.10
80937;DHT22;70395;51.382;7.074;2023-12-20T03:21:44;9.10;73.30
80937;DHT22;70395;51.382;7.074;2023-12-20T03:24:11;9.10;73.10
80937;DHT22;70395;51.382;7.074;2023-12-20T03:26:36;9.20;73.20
80937;DHT22;70395;51.382;7.074;2023-12-20T03:29:02;9.10;72.90
80937;DHT22;70395;51.382;7.074;2023-12-20T03:31:28;9.10;72.90
80937;DHT22;70395;51.382;7.074;2023-12-20T03:33:54;9.10;72.80
80937;DHT22;70395;51.382;7.074;2023-12-20T03:36:20;9.10;72.60
80937;DHT22;70395;51.382;7.074;2023-12-20T03:38:46;9.10;72.70
80937;DHT22;70395;51.382;7.074;2023-12-20T03:41:12;9.00;72.70
80937;DHT22;70395;51.382;7.074;2023-12-20T03:43:38;9.00;72.80
80937;DHT22;70395;51.382;7.074;2023-12-20T03:46:05;9.00;72.80
80937;DHT22;70395;51.382;7.074;2023-12-20T03:48:31;9.00;72.90
80937;DHT22;70395;51.382;7.074;2023-12-20T03:50:57;8.90;72.60
80937;DHT22;70395;51.382;7.074;2023-12-20T03:53:23;8.90;72.70
80937;DHT22;70395;51.382;7.074;2023-12-20T03:55:48;8.90;72.70
80937;DHT22;70395;51.382;7.074;2023-12-20T03:58:14;8.90;72.60
80937;DHT22;70395;51.382;7.074;2023-12-20T04:00:40;8.80;72.50
80937;DHT22;70395;51.382;7.074;2023-12-20T04:03:07;8.80;72.70
80937;DHT22;70395;51.382;7.074;2023-12-20T04:05:33;8.80;72.70
80937;DHT22;70395;51.382;7.074;2023-12-20T04:08:01;8.80;72.80
80937;DHT22;70395;51.382;7.074;2023-12-20T04:10:28;8.80;72.90
80937;DHT22;70395;51.382;7.074;2023-12-20T04:12:54;8.80;73.00
80937;DHT22;70395;51.382;7.074;2023-12-20T04:15:20;8.70;72.90
80937;DHT22;70395;51.382;7.074;2023-12-20T04:17:46;8.70;72.90
80937;DHT22;70395;51.382;7.074;2023-12-20T04:20:12;8.70;72.90
80937;DHT22;70395;51.382;7.074;2023-12-20T04:22:38;8.60;72.80
80937;DHT22;70395;51.382;7.074;2023-12-20T04:25:04;8.60;72.90
80937;DHT22;70395;51.382;7.074;2023-12-20T04:27:30;8.60;73.10
80937;DHT22;70395;51.382;7.074;2023-12-20T04:29:56;8.50;73.10
80937;DHT22;70395;51.382;7.074;2023-12-20T04:32:22;8.50;73.20
80937;DHT22;70395;51.382;7.074;2023-12-20T04:34:48;8.50;73.10
80937;DHT22;70395;51.382;7.074;2023-12-20T04:37:14;8.50;73.30
80937;DHT22;70395;51.382;7.074;2023-12-20T04:39:40;8.50;73.30
80937;DHT22;70395;51.382;7.074;2023-12-20T04:42:07;8.50;73.40
80937;DHT22;70395;51.382;7.074;2023-12-20T04:44:33;8.50;73.30
80937;DHT22;70395;51.382;7.074;2023-12-20T04:46:58;8.50;73.50
80937;DHT22;70395;51.382;7.074;2023-12-20T04:49:25;8.50;73.50
80937;DHT22;70395;51.382;7.074;2023-12-20T04:51:51;8.50;73.50
80937;DHT22;70395;51.382;7.074;2023-12-20T04:54:16;8.50;73.20
80937;DHT22;70395;51.382;7.074;2023-12-20T04:56:42;8.50;73.30
80937;DHT22;70395;51.382;7.074;2023-12-20T04:59:08;8.60;73.30
80937;DHT22;70395;51.382;7.074;2023-12-20T05:01:34;8.50;73.20
80937;DHT22;70395;51.382;7.074;2023-12-20T05:04:00;8.60;73.30
80937;DHT22;70395;51.382;7.074;2023-12-20T05:06:26;8.60;73.20
80937;DHT22;70395;51.382;7.074;2023-12-20T05:08:52;8.60;73.30
80937;DHT22;70395;51.382;7.074;2023-12-20T05:11:18;8.60;73.00
80937;DHT22;70395;51.382;7.074;2023-12-20T05:13:47;8.60;72.90
80937;DHT22;70395;51.382;7.074;2023-12-20T05:16:13;8.60;72.90
80937;DHT22;70395;51.382;7.074;2023-12-20T05:18:40;8.60;72.80
80937;DHT22;70395;51.382;7.074;2023-12-20T05:21:05;8.60;73.00
80937;DHT22;70395;51.382;7.074;2023-12-20T05:23:32;8.60;72.90
80937;DHT22;70395;51.382;7.074;2023-12-20T05:25:57;8.60;72.70
80937;DHT22;70395;51.382;7.074;2023-12-20T05:28:24;8.70;72.70
80937;DHT22;70395;51.382;7.074;2023-12-20T05:30:51;8.60;72.50
80937;DHT22;70395;51.382;7.074;2023-12-20T05:33:16;8.60;72.50
80937;DHT22;70395;51.382;7.074;2023-12-20T05:35:42;8.60;72.50
80937;DHT22;70395;51.382;7.074;2023-12-20T05:38:08;8.60;72.60
80937;DHT22;70395;51.382;7.074;2023-12-20T05:40:34;8.60;72.60
80937;DHT22;70395;51.382;7.074;2023-12-20T05:43:00;8.60;72.60
80937;DHT22;70395;51.382;7.074;2023-12-20T05:45:25;8.60;72.60
80937;DHT22;70395;51.382;7.074;2023-12-20T05:47:51;8.50;72.50
80937;DHT22;70395;51.382;7.074;2023-12-20T05:50:17;8.50;72.70
80937;DHT22;70395;51.382;7.074;2023-12-20T05:52:43;8.50;73.00
80937;DHT22;70395;51.382;7.074;2023-12-20T05:55:09;8.50;73.00
80937;DHT22;70395;51.382;7.074;2023-12-20T05:57:35;8.50;73.10
80937;DHT22;70395;51.382;7.074;2023-12-20T06:00:01;8.60;73.10
80937;DHT22;70395;51.382;7.074;2023-12-20T06:02:26;8.50;73.10
80937;DHT22;70395;51.382;7.074;2023-12-20T06:04:52;8.50;73.00
80937;DHT22;70395;51.382;7.074;2023-12-20T06:07:18;8.60;73.00
80937;DHT22;70395;51.382;7.074;2023-12-20T06:09:44;8.50;72.70
80937;DHT22;70395;51.382;7.074;2023-12-20T06:12:10;8.60;72.60
80937;DHT22;70395;51.382;7.074;2023-12-20T06:14:36;8.60;72.70
80937;DHT22;70395;51.382;7.074;2023-12-20T06:17:02;8.60;72.50
80937;DHT22;70395;51.382;7.074;2023-12-20T06:19:28;8.60;72.60
80937;DHT22;70395;51.382;7.074;2023-12-20T06:21:54;8.60;72.70
80937;DHT22;70395;51.382;7.074;2023-12-20T06:24:20;8.60;72.40
80937;DHT22;70395;51.382;7.074;2023-12-20T06:26:47;8.60;72.70
80937;DHT22;70395;51.382;7.074;2023-12-20T06:29:12;8.60;72.60
80937;DHT22;70395;51.382;7.074;2023-12-20T06:31:38;8.50;72.50
80937;DHT22;70395;51.382;7.074;2023-12-20T06:34:04;8.50;72.60
80937;DHT22;70395;51.382;7.074;2023-12-20T06:36:30;8.50;72.50
80937;DHT22;70395;51.382;7.074;2023-12-20T06:38:56;8.60;72.60
80937;DHT22;70395;51.382;7.074;2023-12-20T06:41:22;8.50;72.50
80937;DHT22;70395;51.382;7.074;2023-12-20T06:43:50;8.60;72.70
80937;DHT22;70395;51.382;7.074;2023-12-20T06:46:17;8.60;72.60
80937;DHT22;70395;51.382;7.074;2023-12-20T06:48:42;8.60;72.70
80937;DHT22;70395;51.382;7.074;2023-12-20T06:51:14;8.60;72.50
80937;DHT22;70395;51.382;7.074;2023-12-20T06:53:42;8.60;72.60
80937;DHT22;70395;51.382;7.074;2023-12-20T06:56:10;8.60;72.60
80937;DHT22;70395;51.382;7.074;2023-12-20T06:58:36;8.60;72.70
80937;DHT22;70395;51.382;7.074;2023-12-20T07:01:03;8.60;72.50
80937;DHT22;70395;51.382;7.074;2023-12-20T07:03:30;8.70;72.50
80937;DHT22;70395;51.382;7.074;2023-12-20T07:05:55;8.60;72.10
80937;DHT22;70395;51.382;7.074;2023-12-20T07:08:21;8.60;72.10
80937;DHT22;70395;51.382;7.074;2023-12-20T07:10:47;8.60;72.20
80937;DHT22;70395;51.382;7.074;2023-12-20T07:13:13;8.60;72.30
80937;DHT22;70395;51.382;7.074;2023-12-20T07:15:39;8.70;72.00
80937;DHT22;70395;51.382;7.074;2023-12-20T07:18:05;8.60;72.00
80937;DHT22;70395;51.382;7.074;2023-12-20T07:20:31;8.60;72.00
80937;DHT22;70395;51.382;7.074;2023-12-20T07:22:57;8.70;72.20
80937;DHT22;70395;51.382;7.074;2023-12-20T07:25:23;8.70;72.10
80937;DHT22;70395;51.382;7.074;2023-12-20T07:27:49;8.70;72.00
80937;DHT22;70395;51.382;7.074;2023-12-20T07:30:15;8.70;71.90
80937;DHT22;70395;51.382;7.074;2023-12-20T07:32:41;8.70;72.10
80937;DHT22;70395;51.382;7.074;2023-12-20T07:35:07;8.70;71.70
80937;DHT22;70395;51.382;7.074;2023-12-20T07:37:33;8.70;71.60
80937;DHT22;70395;51.382;7.074;2023-12-20T07:39:59;8.80;71.70
80937;DHT22;70395;51.382;7.074;2023-12-20T07:42:24;8.70;71.60
80937;DHT22;70395;51.382;7.074;2023-12-20T07:44:50;8.70;71.60
80937;DHT22;70395;51.382;7.074;2023-12-20T07:47:16;8.70;71.60
80937;DHT22;70395;51.382;7.074;2023-12-20T07:49:49;8.80;71.80
80937;DHT22;70395;51.382;7.074;2023-12-20T07:52:17;8.80;71.40
80937;DHT22;70395;51.382;7.074;2023-12-20T07:54:44;8.80;71.60
80937;DHT22;70395;51.382;7.074;2023-12-20T07:57:11;8.80;71.60
80937;DHT22;70395;51.382;7.074;2023-12-20T07:59:37;8.90;71.60
80937;DHT22;70395;51.382;7.074;2023-12-20T08:02:03;8.90;71.60
80937;DHT22;70395;51.382;7.074;2023-12-20T08:04:29;8.90;71.50
80937;DHT22;70395;51.382;7.074;2023-12-20T08:06:55;8.90;71.40
80937;DHT22;70395;51.382;7.074;2023-12-20T08:09:21;8.90;71.10
80937;DHT22;70395;51.382;7.074;2023-12-20T08:11:48;8.90;71.10
80937;DHT22;70395;51.382;7.074;2023-12-20T08:14:14;8.90;71.00
80937;DHT22;70395;51.382;7.074;2023-12-20T08:16:41;9.00;71.40
80937;DHT22;70395;51.382;7.074;2023-12-20T08:19:07;9.00;71.50
80937;DHT22;70395;51.382;7.074;2023-12-20T08:21:33;9.00;70.90
80937;DHT22;70395;51.382;7.074;2023-12-20T08:24:00;9.00;71.20
80937;DHT22;70395;51.382;7.074;2023-12-20T08:26:29;9.00;71.10
80937;DHT22;70395;51.382;7.074;2023-12-20T08:28:54;8.90;70.90
80937;DHT22;70395;51.382;7.074;2023-12-20T08:31:20;9.00;71.20
80937;DHT22;70395;51.382;7.074;2023-12-20T08:33:47;9.00;71.10
80937;DHT22;70395;51.382;7.074;2023-12-20T08:36:14;9.00;71.20
80937;DHT22;70395;51.382;7.074;2023-12-20T08:38:40;9.00;71.20
80937;DHT22;70395;51.382;7.074;2023-12-20T08:41:06;9.00;71.00
80937;DHT22;70395;51.382;7.074;2023-12-20T08:43:34;9.00;70.70
80937;DHT22;70395;51.382;7.074;2023-12-20T08:46:01;9.00;70.50
80937;DHT22;70395;51.382;7.074;2023-12-20T08:48:28;9.10;70.70
80937;DHT22;70395;51.382;7.074;2023-12-20T08:50:54;9.10;70.60
80937;DHT22;70395;51.382;7.074;2023-12-20T08:53:20;9.10;70.70
80937;DHT22;70395;51.382;7.074;2023-12-20T08:55:47;9.10;70.50
80937;DHT22;70395;51.382;7.074;2023-12-20T08:58:13;9.10;70.40
80937;DHT22;70395;51.382;7.074;2023-12-20T09:00:39;9.10;70.40
80937;DHT22;70395;51.382;7.074;2023-12-20T09:03:05;9.10;70.40
80937;DHT22;70395;51.382;7.074;2023-12-20T09:05:31;9.10;70.10
80937;DHT22;70395;51.382;7.074;2023-12-20T09:07:57;9.20;70.40
80937;DHT22;70395;51.382;7.074;2023-12-20T09:10:23;9.10;69.90
80937;DHT22;70395;51.382;7.074;2023-12-20T09:12:52;9.20;70.10
80937;DHT22;70395;51.382;7.074;2023-12-20T09:15:26;9.20;70.10
80937;DHT22;70395;51.382;7.074;2023-12-20T09:17:53;9.20;69.80
80937;DHT22;70395;51.382;7.074;2023-12-20T09:20:19;9.20;69.90
80937;DHT22;70395;51.382;7.074;2023-12-20T09:22:45;9.20;70.10
80937;DHT22;70395;51.382;7.074;2023-12-20T09:25:11;9.20;69.90
80937;DHT22;70395;51.382;7.074;2023-12-20T09:27:39;9.20;69.80
80937;DHT22;70395;51.382;7.074;2023-12-20T09:30:05;9.30;69.50
80937;DHT22;70395;51.382;7.074;2023-12-20T09:32:32;9.30;69.70
80937;DHT22;70395;51.382;7.074;2023-12-20T09:35:01;9.30;69.50
80937;DHT22;70395;51.382;7.074;2023-12-20T09:37:27;9.30;69.60
80937;DHT22;70395;51.382;7.074;2023-12-20T09:39:54;9.30;69.70
80937;DHT22;70395;51.382;7.074;2023-12-20T09:45:09;9.30;69.20
80937;DHT22;70395;51.382;7.074;2023-12-20T09:47:39;9.30;69.40
80937;DHT22;70395;51.382;7.074;2023-12-20T09:50:06;9.30;69.20
80937;DHT22;70395;51.382;7.074;2023-12-20T09:52:34;9.30;69.30
80937;DHT22;70395;51.382;7.074;2023-12-20T09:55:04;9.30;69.30
80937;DHT22;70395;51.382;7.074;2023-12-20T09:57:33;9.30;69.20
80937;DHT22;70395;51.382;7.074;2023-12-20T09:59:59;9.30;69.20
80937;DHT22;70395;51.382;7.074;2023-12-20T10:02:26;9.40;69.40
80937;DHT22;70395;51.382;7.074;2023-12-20T10:04:54;9.40;70.00
80937;DHT22;70395;51.382;7.074;2023-12-20T10:07:20;9.40;69.40
80937;DHT22;70395;51.382;7.074;2023-12-20T10:09:47;9.40;69.30
80937;DHT22;70395;51.382;7.074;2023-12-20T10:12:14;9.40;69.00
80937;DHT22;70395;51.382;7.074;2023-12-20T10:14:40;9.40;69.00
80937;DHT22;70395;51.382;7.074;2023-12-20T10:17:06;9.40;69.00
80937;DHT22;70395;51.382;7.074;2023-12-20T10:19:32;9.40;69.10
80937;DHT22;70395;51.382;7.074;2023-12-20T10:22:04;9.40;69.00
80937;DHT22;70395;51.382;7.074;2023-12-20T10:24:30;9.40;69.20
80937;DHT22;70395;51.382;7.074;2023-12-20T10:27:07;9.40;69.20
80937;DHT22;70395;51.382;7.074;2023-12-20T10:29:37;9.40;69.00
80937;DHT22;70395;51.382;7.074;2023-12-20T10:32:25;9.40;69.10
80937;DHT22;70395;51.382;7.074;2023-12-20T10:34:53;9.40;68.80
80937;DHT22;70395;51.382;7.074;2023-12-20T10:37:20;9.40;69.00
80937;DHT22;70395;51.382;7.074;2023-12-20T10:39:51;9.40;69.20
80937;DHT22;70395;51.382;7.074;2023-12-20T10:42:22;9.40;69.40
80937;DHT22;70395;51.382;7.074;2023-12-20T10:44:49;9.40;69.10
80937;DHT22;70395;51.382;7.074;2023-12-20T10:47:17;9.40;69.10
80937;DHT22;70395;51.382;7.074;2023-12-20T10:49:45;9.40;69.00
80937;DHT22;70395;51.382;7.074;2023-12-20T10:52:12;9.40;69.10
80937;DHT22;70395;51.382;7.074;2023-12-20T10:54:41;9.40;69.20
80937;DHT22;70395;51.382;7.074;2023-12-20T10:57:08;9.40;69.10
80937;DHT22;70395;51.382;7.074;2023-12-20T10:59:37;9.40;68.80
80937;DHT22;70395;51.382;7.074;2023-12-20T11:02:05;9.40;69.10
80937;DHT22;70395;51.382;7.074;2023-12-20T11:04:39;9.40;69.10
80937;DHT22;70395;51.382;7.074;2023-12-20T11:07:54;9.40;68.90
80937;DHT22;70395;51.382;7.074;2023-12-20T11:10:39;9.40;69.00
80937;DHT22;70395;51.382;7.074;2023-12-20T11:13:26;9.40;69.10
80937;DHT22;70395;51.382;7.074;2023-12-20T11:15:58;9.40;69.10
80937;DHT22;70395;51.382;7.074;2023-12-20T11:18:31;9.40;69.00
80937;DHT22;70395;51.382;7.074;2023-12-20T11:21:02;9.40;69.10
80937;DHT22;70395;51.382;7.074;2023-12-20T11:23:30;9.40;69.10
80937;DHT22;70395;51.382;7.074;2023-12-20T11:25:59;9.50;69.40
80937;DHT22;70395;51.382;7.074;2023-12-20T11:28:27;9.50;69.20
80937;DHT22;70395;51.382;7.074;2023-12-20T11:30:57;9.50;69.50
80937;DHT22;70395;51.382;7.074;2023-12-20T11:33:38;9.50;69.40
80937;DHT22;70395;51.382;7.074;2023-12-20T11:36:13;9.50;69.30
80937;DHT22;70395;51.382;7.074;2023-12-20T11:38:57;9.50;69.50
80937;DHT22;70395;51.382;7.074;2023-12-20T11:41:26;9.50;69.80
80937;DHT22;70395;51.382;7.074;2023-12-20T11:43:55;9.50;69.80
80937;DHT22;70395;51.382;7.074;2023-12-20T11:46:22;9.50;69.50
80937;DHT22;70395;51.382;7.074;2023-12-20T11:48:48;9.50;69.40
80937;DHT22;70395;51.382;7.074;2023-12-20T11:51:14;9.50;69.40
80937;DHT22;70395;51.382;7.074;2023-12-20T11:53:41;9.50;69.80
80937;DHT22;70395;51.382;7.074;2023-12-20T11:56:10;9.60;70.10
80937;DHT22;70395;51.382;7.074;2023-12-20T11:58:36;9.70;69.90
80937;DHT22;70395;51.382;7.074;2023-12-20T12:01:03;9.70;69.90
80937;DHT22;70395;51.382;7.074;2023-12-20T12:03:30;9.80;69.50
80937;DHT22;70395;51.382;7.074;2023-12-20T12:05:56;9.80;69.20
80937;DHT22;70395;51.382;7.074;2023-12-20T12:08:22;9.90;69.40
80937;DHT22;70395;51.382;7.074;2023-12-20T12:10:49;9.90;69.00
80937;DHT22;70395;51.382;7.074;2023-12-20T12:13:15;10.00;68.10
80937;DHT22;70395;51.382;7.074;2023-12-20T12:15:42;10.00;68.20
80937;DHT22;70395;51.382;7.074;2023-12-20T12:18:08;10.00;68.20
80937;DHT22;70395;51.382;7.074;2023-12-20T12:20:35;10.00;68.30
80937;DHT22;70395;51.382;7.074;2023-12-20T12:23:05;10.00;68.30
80937;DHT22;70395;51.382;7.074;2023-12-20T12:25:34;10.00;68.50
80937;DHT22;70395;51.382;7.074;2023-12-20T12:28:02;10.00;68.50
80937;DHT22;70395;51.382;7.074;2023-12-20T12:30:28;10.00;68.50
80937;DHT22;70395;51.382;7.074;2023-12-20T12:32:56;9.90;69.30
80937;DHT22;70395;51.382;7.074;2023-12-20T12:35:23;9.90;69.50
80937;DHT22;70395;51.382;7.074;2023-12-20T12:37:49;9.90;69.50
80937;DHT22;70395;51.382;7.074;2023-12-20T12:40:17;9.90;69.80
80937;DHT22;70395;51.382;7.074;2023-12-20T12:42:44;9.90;69.70
80937;DHT22;70395;51.382;7.074;2023-12-20T12:45:11;9.90;69.70
80937;DHT22;70395;51.382;7.074;2023-12-20T12:47:37;10.00;69.00
80937;DHT22;70395;51.382;7.074;2023-12-20T12:50:04;10.00;68.70
80937;DHT22;70395;51.382;7.074;2023-12-20T12:52:31;9.90;69.60
80937;DHT22;70395;51.382;7.074;2023-12-20T12:54:57;9.90;69.60
80937;DHT22;70395;51.382;7.074;2023-12-20T12:57:23;10.00;69.40
80937;DHT22;70395;51.382;7.074;2023-12-20T12:59:49;10.00;68.70
80937;DHT22;70395;51.382;7.074;2023-12-20T13:02:16;10.00;68.40
80937;DHT22;70395;51.382;7.074;2023-12-20T13:04:42;10.00;68.20
80937;DHT22;70395;51.382;7.074;2023-12-20T13:07:09;9.90;69.30
80937;DHT22;70395;51.382;7.074;2023-12-20T13:09:38;9.90;69.50
80937;DHT22;70395;51.382;7.074;2023-12-20T13:12:08;9.90;69.50
80937;DHT22;70395;51.382;7.074;2023-12-20T13:14:34;9.90;69.70
80937;DHT22;70395;51.382;7.074;2023-12-20T13:17:03;9.90;69.70
80937;DHT22;70395;51.382;7.074;2023-12-20T13:19:29;9.90;69.70
80937;DHT22;70395;51.382;7.074;2023-12-20T13:21:56;9.90;69.60
80937;DHT22;70395;51.382;7.074;2023-12-20T13:24:23;9.90;69.50
80937;DHT22;70395;51.382;7.074;2023-12-20T13:26:49;9.90;69.70
80937;DHT22;70395;51.382;7.074;2023-12-20T13:29:15;9.90;69.70
80937;DHT22;70395;51.382;7.074;2023-12-20T13:31:41;9.90;69.90
80937;DHT22;70395;51.382;7.074;2023-12-20T13:34:07;9.90;70.20
80937;DHT22;70395;51.382;7.074;2023-12-20T13:36:33;9.90;70.30
80937;DHT22;70395;51.382;7.074;2023-12-20T13:39:00;9.90;70.50
80937;DHT22;70395;51.382;7.074;2023-12-20T13:41:27;9.80;70.60
80937;DHT22;70395;51.382;7.074;2023-12-20T13:43:53;9.80;71.30
80937;DHT22;70395;51.382;7.074;2023-12-20T13:46:19;9.80;71.10
80937;DHT22;70395;51.382;7.074;2023-12-20T13:48:45;9.80;71.30
80937;DHT22;70395;51.382;7.074;2023-12-20T13:51:11;9.70;71.20
80937;DHT22;70395;51.382;7.074;2023-12-20T13:53:37;9.70;71.40
80937;DHT22;70395;51.382;7.074;2023-12-20T13:56:04;9.60;71.40
80937;DHT22;70395;51.382;7.074;2023-12-20T13:58:30;9.60;71.60
80937;DHT22;70395;51.382;7.074;2023-12-20T14:00:56;9.60;71.90
80937;DHT22;70395;51.382;7.074;2023-12-20T14:03:22;9.60;72.00
80937;DHT22;70395;51.382;7.074;2023-12-20T14:05:47;9.60;72.20
80937;DHT22;70395;51.382;7.074;2023-12-20T14:08:13;9.60;72.40
80937;DHT22;70395;51.382;7.074;2023-12-20T14:10:39;9.60;72.50
80937;DHT22;70395;51.382;7.074;2023-12-20T14:13:05;9.50;72.60
80937;DHT22;70395;51.382;7.074;2023-12-20T14:15:31;9.50;72.60
80937;DHT22;70395;51.382;7.074;2023-12-20T14:18:06;9.50;72.70
80937;DHT22;70395;51.382;7.074;2023-12-20T14:20:33;9.50;72.70
80937;DHT22;70395;51.382;7.074;2023-12-20T14:23:01;9.60;72.90
80937;DHT22;70395;51.382;7.074;2023-12-20T14:25:27;9.50;73.10
80937;DHT22;70395;51.382;7.074;2023-12-20T14:27:53;9.50;73.10
80937;DHT22;70395;51.382;7.074;2023-12-20T14:30:19;9.40;73.30
80937;DHT22;70395;51.382;7.074;2023-12-20T14:32:45;9.40;73.30
80937;DHT22;70395;51.382;7.074;2023-12-20T14:35:13;9.40;73.40
80937;DHT22;70395;51.382;7.074;2023-12-20T14:37:39;9.40;73.50
80937;DHT22;70395;51.382;7.074;2023-12-20T14:40:10;9.40;73.70
80937;DHT22;70395;51.382;7.074;2023-12-20T14:42:41;9.40;73.90
80937;DHT22;70395;51.382;7.074;2023-12-20T14:45:08;9.40;74.50
80937;DHT22;70395;51.382;7.074;2023-12-20T14:47:34;9.40;73.80
80937;DHT22;70395;51.382;7.074;2023-12-20T14:50:03;9.40;73.80
80937;DHT22;70395;51.382;7.074;2023-12-20T14:52:30;9.40;73.80
80937;DHT22;70395;51.382;7.074;2023-12-20T14:54:56;9.40;73.80
80937;DHT22;70395;51.382;7.074;2023-12-20T14:57:22;9.40;73.70
80937;DHT22;70395;51.382;7.074;2023-12-20T14:59:48;9.50;73.80
80937;DHT22;70395;51.382;7.074;2023-12-20T15:02:14;9.50;73.80
80937;DHT22;70395;51.382;7.074;2023-12-20T15:04:41;9.50;73.80
80937;DHT22;70395;51.382;7.074;2023-12-20T15:07:06;9.50;73.80
80937;DHT22;70395;51.382;7.074;2023-12-20T15:09:32;9.50;73.70
80937;DHT22;70395;51.382;7.074;2023-12-20T15:11:58;9.50;73.50
80937;DHT22;70395;51.382;7.074;2023-12-20T15:14:24;9.50;73.50
80937;DHT22;70395;51.382;7.074;2023-12-20T15:16:50;9.50;73.60
80937;DHT22;70395;51.382;7.074;2023-12-20T15:19:16;9.50;73.50
80937;DHT22;70395;51.382;7.074;2023-12-20T15:21:42;9.50;73.60
80937;DHT22;70395;51.382;7.074;2023-12-20T15:24:11;9.50;73.50
80937;DHT22;70395;51.382;7.074;2023-12-20T15:26:42;9.60;73.50
80937;DHT22;70395;51.382;7.074;2023-12-20T15:29:10;9.60;73.60
80937;DHT22;70395;51.382;7.074;2023-12-20T15:31:42;9.60;73.60
80937;DHT22;70395;51.382;7.074;2023-12-20T15:34:09;9.60;73.60
80937;DHT22;70395;51.382;7.074;2023-12-20T15:36:36;9.60;73.50
80937;DHT22;70395;51.382;7.074;2023-12-20T15:39:03;9.60;73.50
80937;DHT22;70395;51.382;7.074;2023-12-20T15:41:29;9.70;73.50
80937;DHT22;70395;51.382;7.074;2023-12-20T15:43:55;9.70;73.50
80937;DHT22;70395;51.382;7.074;2023-12-20T15:46:22;9.70;73.50